Williston, North Dakota
Current Conditions -  °F | °C
As of 9:52 PM on Sunday 25 Jan 2015 (Local Time) from KISN Reporting Station
Clear Clear  
Wind Chill: 36°   Ceiling: Unl
Heat Index: 43°   Visibility: 10mi
Dew Point: 35°   Wind: 14mph
Humidity: 74%   Direction: 270°W
Pressure: 29.79"   Gusts: NA
Location:  48.15°N, 103.62°W
Report Text: KISN 260352Z AUTO 27012KT 10SM CLR 06/02 A2979 RMK AO2 SLP105 T00610017
Loading
Personal Weather Stations






























Interactive Weather Map New forecast layout! Learn more

10-Day Weather Forecast

Advertisements
Track Severe Weather on mobile